Fairfield, Maine
Current Conditions -  °F | °C
As of 9:15 AM on Wednesday 28 Jan 2015 (Local Time) from KWVL Reporting Station
Scattered Clouds Scattered Clouds  
Wind Chill: -5°   Ceiling: Unl
Heat Index: 12°   Visibility: 2.5mi
Dew Point: 10°   Wind: 18mph
Humidity: 92%   Direction: 320°NW
Pressure: 29.83"   Gusts: 29mph
Location:  44.59°N, 69.61°W
Report Text: KWVL 281415Z 32016G25KT 2 1/2SM SCT015 M11/M12 A2983 RMK AO1
Loading
Personal Weather Stations






























Interactive Weather Map New forecast layout! Learn more

10-Day Weather Forecast

Advertisements
Track Severe Weather on mobile